Strakonice, Czech Republic
Current Conditions -  °F | °C
As of 3:00 PM on Wednesday 22 Oct 2014 (Local Time) from LKLN Reporting Station
Overcast Overcast  
Wind Chill: 41°   Ceiling: 2700
Heat Index: 45°   Visibility: NA
Dew Point: 39°   Wind: 7mph
Humidity: 81%   Direction: 260°W
Pressure: 29.8"   Gusts: NA
Location:  49.26°N, 13.91°E
Report Text: LKLN 221300Z AUTO 26006KT 230V290 //// OVC027 07/04 Q1009
Loading
Personal Weather Stations






























Interactive Weather Map
Tropical Storm Tracking
New forecast layout! Learn more

10-Day Weather Forecast

Advertisements
Track Severe Weather on mobile